createdAt,value
2023-04-25T00:02:24.312Z,11.32
2023-04-25T00:04:53.249Z,11.65
2023-04-25T00:07:21.901Z,12.18
2023-04-25T00:09:50.816Z,11.53
2023-04-25T00:12:19.489Z,12.02
2023-04-25T00:14:48.776Z,10.32
2023-04-25T00:17:17.847Z,12.98
2023-04-25T00:19:47.564Z,10.50
2023-04-25T00:22:16.188Z,12.13
2023-04-25T00:24:44.353Z,9.95
2023-04-25T00:27:12.840Z,9.82
2023-04-25T00:29:43.286Z,12.00
2023-04-25T00:32:12.061Z,8.85
2023-04-25T00:34:41.548Z,8.67
2023-04-25T00:37:11.533Z,12.52
2023-04-25T00:39:42.515Z,9.98
2023-04-25T00:42:14.374Z,9.00
2023-04-25T00:44:44.593Z,8.80
2023-04-25T00:47:13.683Z,8.47
2023-04-25T00:49:42.240Z,13.63
2023-04-25T00:52:13.146Z,11.35
2023-04-25T00:54:46.346Z,10.27
2023-04-25T00:57:14.910Z,10.80
2023-04-25T00:59:48.120Z,10.60
2023-04-25T01:02:17.859Z,12.10
2023-04-25T01:04:47.670Z,12.93
2023-04-25T01:07:17.307Z,9.48
2023-04-25T01:09:47.811Z,9.00
2023-04-25T01:12:16.525Z,15.00
2023-04-25T01:14:45.950Z,10.15
2023-04-25T01:17:17.275Z,10.70
2023-04-25T01:19:47.161Z,12.75
2023-04-25T01:22:18.304Z,9.73
2023-04-25T01:24:49.810Z,14.03
2023-04-25T01:27:20.189Z,11.10
2023-04-25T01:29:48.847Z,13.30
2023-04-25T01:32:17.634Z,9.35
2023-04-25T01:34:45.905Z,13.18
2023-04-25T01:37:18.688Z,12.17
2023-04-25T01:39:49.843Z,9.80
2023-04-25T01:42:18.231Z,11.32
2023-04-25T01:44:46.558Z,13.07
2023-04-25T01:47:14.919Z,8.52
2023-04-25T01:49:47.574Z,11.07
2023-04-25T01:52:16.843Z,12.18
2023-04-25T01:54:47.857Z,11.27
2023-04-25T01:57:31.173Z,9.55
2023-04-25T02:00:04.341Z,12.13
2023-04-25T02:02:41.694Z,11.07
2023-04-25T02:05:38.613Z,10.60
2023-04-25T02:08:10.664Z,8.23
2023-04-25T02:10:39.588Z,10.20
2023-04-25T02:13:24.317Z,8.63
2023-04-25T02:16:16.147Z,7.73
2023-04-25T02:18:46.336Z,7.53
2023-04-25T02:21:15.082Z,9.02
2023-04-25T02:23:46.587Z,9.20
2023-04-25T02:26:15.898Z,8.00
2023-04-25T02:28:46.542Z,7.70
2023-04-25T02:31:16.381Z,9.48
2023-04-25T02:33:45.213Z,7.68
2023-04-25T02:36:19.935Z,10.20
2023-04-25T02:38:50.478Z,7.15
2023-04-25T02:41:19.783Z,10.47
2023-04-25T02:43:51.614Z,10.20
2023-04-25T02:46:32.274Z,13.45
2023-04-25T02:49:12.749Z,10.77
2023-04-25T02:51:41.752Z,14.57
2023-04-25T02:54:11.059Z,10.77
2023-04-25T02:56:45.176Z,9.63
2023-04-25T02:59:23.964Z,9.30
2023-04-25T03:01:52.085Z,11.88
2023-04-25T03:04:21.965Z,10.35
2023-04-25T03:06:52.699Z,11.00
2023-04-25T03:09:22.616Z,11.00
2023-04-25T03:11:52.323Z,9.35
2023-04-25T03:14:22.575Z,11.07
2023-04-25T03:16:53.980Z,12.05
2023-04-25T03:19:22.242Z,10.80
2023-04-25T03:21:50.394Z,8.57
2023-04-25T03:27:01.774Z,9.20
2023-04-25T03:29:34.822Z,9.30
2023-04-25T03:32:07.097Z,6.90
2023-04-25T03:34:41.652Z,10.27
2023-04-25T03:37:12.488Z,13.45
2023-04-25T03:39:41.375Z,13.18
2023-04-25T03:42:09.844Z,11.63
2023-04-25T03:44:40.846Z,11.30
2023-04-25T03:47:09.197Z,14.32
2023-04-25T03:49:42.656Z,11.00
2023-04-25T03:52:12.162Z,13.40
2023-04-25T03:54:42.472Z,11.48
2023-04-25T03:57:16.375Z,14.43
2023-04-25T03:59:46.549Z,11.70
2023-04-25T04:02:16.224Z,12.27
2023-04-25T04:04:47.289Z,12.65
2023-04-25T04:07:16.126Z,12.07
2023-04-25T04:09:47.508Z,11.80
2023-04-25T04:12:22.700Z,14.60
2023-04-25T04:14:52.131Z,14.75
2023-04-25T04:17:21.850Z,12.40
2023-04-25T04:19:53.880Z,13.02
2023-04-25T04:22:22.700Z,12.50
2023-04-25T04:24:52.414Z,14.15
2023-04-25T04:27:31.229Z,16.13
2023-04-25T04:30:19.296Z,12.65
2023-04-25T04:32:56.499Z,11.00
2023-04-25T04:35:26.089Z,11.63
2023-04-25T04:37:54.531Z,10.48
2023-04-25T04:40:24.629Z,13.95
2023-04-25T04:42:58.707Z,18.23
2023-04-25T04:45:53.338Z,12.02
2023-04-25T04:48:54.519Z,9.50
2023-04-25T04:51:37.749Z,8.38
2023-04-25T04:54:29.406Z,12.90
2023-04-25T04:57:17.207Z,11.35
2023-04-25T05:00:09.320Z,12.57
2023-04-25T05:02:58.593Z,13.33
2023-04-25T05:05:57.286Z,11.57
2023-04-25T05:08:36.059Z,10.23
2023-04-25T05:11:26.450Z,12.68
2023-04-25T05:14:29.792Z,10.52
2023-04-25T05:17:11.792Z,9.23
2023-04-25T05:20:01.637Z,12.43
2023-04-25T05:23:02.297Z,9.05
2023-04-25T05:25:45.108Z,10.20
2023-04-25T05:28:23.537Z,15.02
2023-04-25T05:31:11.922Z,12.87
2023-04-25T05:33:52.732Z,11.35
2023-04-25T05:36:23.901Z,12.88
2023-04-25T05:38:59.026Z,11.40
2023-04-25T05:41:52.936Z,10.73
2023-04-25T05:44:47.150Z,12.17
2023-04-25T05:47:32.794Z,10.68
2023-04-25T05:50:11.303Z,9.93
2023-04-25T05:52:56.852Z,12.93
2023-04-25T05:55:37.324Z,13.05
2023-04-25T05:58:20.536Z,13.20
2023-04-25T06:00:49.476Z,12.23
2023-04-25T06:03:23.279Z,15.38
2023-04-25T06:05:53.308Z,11.93
2023-04-25T06:08:24.131Z,13.32
2023-04-25T06:10:52.252Z,14.20
2023-04-25T06:13:24.350Z,13.30
2023-04-25T06:15:55.419Z,11.77
2023-04-25T06:18:23.539Z,14.63
2023-04-25T06:20:51.549Z,12.10
2023-04-25T06:23:20.366Z,11.27
2023-04-25T06:26:10.636Z,11.65
2023-04-25T06:28:41.926Z,11.60
2023-04-25T06:31:11.151Z,12.52
2023-04-25T06:33:39.785Z,12.10
2023-04-25T06:36:08.634Z,16.13
2023-04-25T06:38:38.346Z,10.23
2023-04-25T06:41:07.570Z,15.43
2023-04-25T06:43:39.771Z,8.68
2023-04-25T06:46:32.875Z,10.15
2023-04-25T06:49:02.908Z,9.83
2023-04-25T06:51:33.433Z,14.20
2023-04-25T06:54:02.566Z,11.30
2023-04-25T06:56:38.688Z,15.98
2023-04-25T06:59:13.759Z,12.40
2023-04-25T07:01:43.391Z,16.70
2023-04-25T07:04:23.963Z,12.18
2023-04-25T07:06:57.340Z,10.13
2023-04-25T07:09:35.093Z,11.52
2023-04-25T07:12:05.690Z,12.40
2023-04-25T07:14:36.477Z,11.57
2023-04-25T07:17:08.169Z,10.98
2023-04-25T07:19:38.998Z,12.13
2023-04-25T07:22:08.099Z,12.23
2023-04-25T07:24:39.949Z,7.95
2023-04-25T07:27:17.747Z,9.57
2023-04-25T07:30:00.692Z,12.15
2023-04-25T07:32:49.565Z,12.38
2023-04-25T07:35:18.860Z,13.68
2023-04-25T07:37:47.236Z,10.60
2023-04-25T07:40:18.604Z,7.67
2023-04-25T07:42:58.894Z,9.07
2023-04-25T07:45:52.830Z,9.18
2023-04-25T07:48:21.925Z,9.80
2023-04-25T07:50:53.751Z,12.13
2023-04-25T07:53:23.573Z,10.53
2023-04-25T07:56:02.114Z,8.73
2023-04-25T07:58:34.105Z,12.02
2023-04-25T08:01:10.750Z,9.45
2023-04-25T08:04:02.660Z,7.18
2023-04-25T08:06:58.554Z,10.80
2023-04-25T08:09:41.375Z,11.68
2023-04-25T08:12:24.331Z,12.10
2023-04-25T08:17:54.486Z,8.55
2023-04-25T08:20:24.032Z,8.80
2023-04-25T08:22:57.781Z,9.35
2023-04-25T08:25:45.458Z,10.35
2023-04-25T08:28:20.287Z,10.30
2023-04-25T08:30:57.743Z,11.57
2023-04-25T08:33:51.430Z,9.73
2023-04-25T08:36:42.583Z,11.25
2023-04-25T08:39:31.452Z,7.38
2023-04-25T08:42:23.960Z,9.13
2023-04-25T08:44:55.589Z,8.25
2023-04-25T08:47:43.364Z,8.67
2023-04-25T08:50:12.942Z,8.88
2023-04-25T08:52:47.057Z,8.52
2023-04-25T08:55:16.454Z,7.88
2023-04-25T08:57:45.432Z,6.40
2023-04-25T09:00:16.242Z,10.97
2023-04-25T09:02:46.375Z,5.65
2023-04-25T09:05:18.870Z,7.75
2023-04-25T09:07:50.688Z,4.50
2023-04-25T09:10:19.302Z,6.75
2023-04-25T09:13:07.221Z,7.63
2023-04-25T09:15:51.961Z,8.30
2023-04-25T09:18:37.468Z,6.20
2023-04-25T09:21:14.338Z,7.43
2023-04-25T09:23:47.755Z,7.13
2023-04-25T09:26:18.182Z,9.77
2023-04-25T09:28:55.024Z,9.15
2023-04-25T09:31:26.362Z,8.15
2023-04-25T09:34:01.624Z,7.38
2023-04-25T09:36:47.488Z,9.77
2023-04-25T09:39:48.283Z,14.23
2023-04-25T09:42:25.882Z,6.50
2023-04-25T09:44:56.164Z,7.80
2023-04-25T09:47:26.349Z,6.93
2023-04-25T09:49:56.108Z,6.90
2023-04-25T09:52:27.168Z,7.13
2023-04-25T09:55:15.953Z,4.68
2023-04-25T09:57:52.939Z,8.68
2023-04-25T10:00:25.602Z,6.07
2023-04-25T10:03:13.232Z,6.68
2023-04-25T10:05:55.418Z,8.20
2023-04-25T10:08:34.353Z,7.97
2023-04-25T10:11:12.130Z,8.88
2023-04-25T10:13:46.982Z,5.97
2023-04-25T10:16:17.489Z,10.50
2023-04-25T10:18:45.637Z,6.60
2023-04-25T10:21:14.937Z,6.90
2023-04-25T10:23:45.106Z,4.47
2023-04-25T10:26:14.348Z,6.47
2023-04-25T10:28:58.855Z,5.68
2023-04-25T10:31:28.384Z,5.77
2023-04-25T10:34:03.980Z,5.97
2023-04-25T10:36:35.976Z,7.70
2023-04-25T10:39:13.548Z,5.03
2023-04-25T10:41:56.279Z,5.85
2023-04-25T10:44:27.026Z,6.00
2023-04-25T10:47:01.620Z,9.40
2023-04-25T10:49:36.814Z,4.85
2023-04-25T10:52:16.221Z,7.90
2023-04-25T10:54:52.294Z,5.60
2023-04-25T10:57:38.113Z,7.80
2023-04-25T11:03:11.205Z,6.78
2023-04-25T11:06:00.130Z,6.40
2023-04-25T11:08:47.459Z,4.75
2023-04-25T11:11:21.430Z,5.13
2023-04-25T11:13:53.408Z,5.68
2023-04-25T11:19:07.989Z,4.20
2023-04-25T11:21:37.259Z,9.57
2023-04-25T11:26:55.328Z,5.18
2023-04-25T11:29:25.043Z,7.45
2023-04-25T11:31:53.133Z,5.65
2023-04-25T11:34:25.917Z,6.72
2023-04-25T11:36:54.684Z,4.80
2023-04-25T11:39:23.003Z,5.25
2023-04-25T11:41:51.432Z,8.40
2023-04-25T11:44:21.822Z,5.10
2023-04-25T11:46:52.028Z,6.50
2023-04-25T11:49:22.998Z,5.47
2023-04-25T11:51:54.076Z,6.38
2023-04-25T11:54:26.431Z,4.78
2023-04-25T11:56:56.307Z,6.15
2023-04-25T11:59:27.742Z,4.45
2023-04-25T12:01:56.253Z,6.90
2023-04-25T12:04:26.385Z,4.68
2023-04-25T12:06:56.442Z,6.60
2023-04-25T12:09:31.238Z,6.35
2023-04-25T12:12:03.666Z,4.95
2023-04-25T12:14:35.498Z,6.73
2023-04-25T12:17:09.188Z,7.57
2023-04-25T12:19:41.713Z,6.25
2023-04-25T12:22:22.145Z,6.90
2023-04-25T12:24:50.718Z,10.57
2023-04-25T12:27:20.460Z,8.10
2023-04-25T12:30:01.992Z,9.57
2023-04-25T12:32:33.011Z,4.18
2023-04-25T12:35:02.331Z,4.93
2023-04-25T12:37:34.478Z,4.50
2023-04-25T12:40:05.286Z,7.03
2023-04-25T12:42:33.383Z,4.97
2023-04-25T12:45:03.486Z,6.50
2023-04-25T12:47:32.096Z,6.95
2023-04-25T12:50:00.154Z,7.90
2023-04-25T12:52:30.063Z,8.20
2023-04-25T12:54:58.393Z,6.05
2023-04-25T12:57:26.809Z,7.10
2023-04-25T12:59:55.066Z,6.75
2023-04-25T13:02:29.600Z,5.50
2023-04-25T13:04:57.886Z,4.60
2023-04-25T13:07:26.372Z,4.82
2023-04-25T13:09:54.893Z,6.82
2023-04-25T13:12:23.392Z,7.97
2023-04-25T13:14:51.564Z,4.68
2023-04-25T13:17:19.729Z,5.87
2023-04-25T13:19:49.303Z,10.20
2023-04-25T13:22:18.031Z,6.03
2023-04-25T13:24:46.105Z,6.45
2023-04-25T13:27:15.121Z,5.95
2023-04-25T13:29:43.710Z,6.43
2023-04-25T13:32:12.173Z,6.30
2023-04-25T13:34:41.272Z,5.72
2023-04-25T13:37:11.499Z,7.25
2023-04-25T13:39:41.108Z,4.70
2023-04-25T13:42:09.572Z,5.33
2023-04-25T13:44:41.771Z,3.83
2023-04-25T13:47:11.532Z,4.35
2023-04-25T13:49:40.804Z,5.22
2023-04-25T13:52:10.485Z,5.28
2023-04-25T13:54:40.994Z,4.30
2023-04-25T13:57:11.315Z,4.00
2023-04-25T13:59:40.253Z,4.35
2023-04-25T14:02:09.319Z,3.60
2023-04-25T14:04:37.534Z,6.50
2023-04-25T14:10:49.667Z,4.03
2023-04-25T14:13:18.045Z,3.80
2023-04-25T14:15:46.219Z,3.72
2023-04-25T14:18:14.405Z,5.63
2023-04-25T14:20:43.037Z,4.57
2023-04-25T14:23:13.020Z,5.93
2023-04-25T14:25:43.051Z,3.75
2023-04-25T14:28:14.286Z,4.70
2023-04-25T14:30:43.277Z,3.60
2023-04-25T14:33:12.226Z,3.97
2023-04-25T14:35:40.730Z,3.92
2023-04-25T14:38:13.440Z,4.50
2023-04-25T14:40:41.713Z,4.40
2023-04-25T14:43:09.979Z,6.35
2023-04-25T14:45:40.818Z,4.73
2023-04-25T14:48:09.256Z,5.65
2023-04-25T14:50:38.422Z,5.28
2023-04-25T14:53:07.993Z,7.38
2023-04-25T14:55:37.536Z,4.90
2023-04-25T14:58:06.387Z,6.30
2023-04-25T15:00:34.783Z,4.63
2023-04-25T15:03:03.358Z,5.90
2023-04-25T15:05:35.080Z,5.43
2023-04-25T15:08:04.532Z,4.00
2023-04-25T15:10:34.019Z,5.00
2023-04-25T15:13:03.931Z,4.60
2023-04-25T15:15:32.748Z,4.55
2023-04-25T15:18:03.174Z,6.22
2023-04-25T15:20:33.164Z,5.18
2023-04-25T15:23:06.503Z,6.10
2023-04-25T15:25:36.593Z,4.65
2023-04-25T15:28:08.903Z,4.95
2023-04-25T15:30:38.877Z,4.45
2023-04-25T15:33:07.312Z,6.10
2023-04-25T15:35:38.948Z,5.70
2023-04-25T15:38:08.202Z,5.80
2023-04-25T15:40:37.633Z,6.15
2023-04-25T15:43:14.508Z,3.60
2023-04-25T15:45:48.145Z,6.00
2023-04-25T15:48:17.498Z,5.07
2023-04-25T15:50:45.646Z,4.82
2023-04-25T15:53:14.092Z,7.95
2023-04-25T15:55:42.501Z,5.00
2023-04-25T15:58:12.884Z,4.95
2023-04-25T16:00:43.498Z,4.33
2023-04-25T16:03:12.148Z,4.38
2023-04-25T16:05:43.049Z,5.28
2023-04-25T16:08:12.076Z,4.78
2023-04-25T16:10:44.381Z,4.90
2023-04-25T16:13:14.156Z,3.70
2023-04-25T16:15:45.372Z,4.85
2023-04-25T16:18:16.480Z,5.75
2023-04-25T16:20:47.392Z,5.70
2023-04-25T16:23:18.048Z,5.35
2023-04-25T16:25:46.906Z,5.17
2023-04-25T16:28:24.947Z,4.72
2023-04-25T16:30:54.679Z,4.65
2023-04-25T16:33:23.683Z,5.95
2023-04-25T16:35:53.430Z,3.60
2023-04-25T16:38:23.517Z,3.43
2023-04-25T16:40:52.836Z,4.28
2023-04-25T16:43:24.228Z,4.65
2023-04-25T16:45:54.638Z,5.57
2023-04-25T16:48:24.574Z,3.40
2023-04-25T16:50:53.880Z,5.53
2023-04-25T16:53:23.273Z,4.18
2023-04-25T16:55:51.752Z,5.22
2023-04-25T16:58:21.315Z,4.88
2023-04-25T17:00:51.650Z,4.10
2023-04-25T17:03:21.709Z,5.63
2023-04-25T17:05:51.912Z,3.60
2023-04-25T17:08:20.473Z,4.18
2023-04-25T17:10:48.651Z,3.50
2023-04-25T17:13:17.129Z,4.38
2023-04-25T17:15:46.486Z,4.13
2023-04-25T17:18:16.161Z,5.70
2023-04-25T17:20:44.580Z,4.25
2023-04-25T17:23:17.140Z,6.13
2023-04-25T17:25:45.559Z,5.68
2023-04-25T17:28:14.552Z,4.33
2023-04-25T17:30:43.438Z,3.95
2023-04-25T17:33:13.708Z,9.52
2023-04-25T17:35:43.391Z,6.75
2023-04-25T17:38:11.575Z,5.35
2023-04-25T17:40:39.819Z,5.23
2023-04-25T17:43:09.386Z,4.45
2023-04-25T17:45:44.369Z,7.35
2023-04-25T17:48:13.021Z,5.55
2023-04-25T17:50:42.156Z,5.78
2023-04-25T17:53:14.337Z,6.20
2023-04-25T17:55:43.873Z,6.22
2023-04-25T17:58:14.927Z,3.92
2023-04-25T18:00:44.625Z,6.40
2023-04-25T18:03:12.955Z,6.20
2023-04-25T18:05:42.464Z,6.43
2023-04-25T18:08:16.683Z,6.78
2023-04-25T18:10:45.416Z,5.03
2023-04-25T18:13:14.959Z,5.13
2023-04-25T18:15:47.327Z,5.68
2023-04-25T18:18:26.473Z,4.93
2023-04-25T18:20:56.648Z,6.25
2023-04-25T18:23:27.124Z,5.85
2023-04-25T18:25:55.295Z,6.53
2023-04-25T18:28:24.501Z,5.03
2023-04-25T18:30:55.294Z,5.63
2023-04-25T18:33:23.936Z,6.05
2023-04-25T18:35:58.790Z,4.95
2023-04-25T18:38:36.012Z,4.10
2023-04-25T18:41:15.416Z,4.88
2023-04-25T18:43:50.836Z,4.87
2023-04-25T18:46:22.627Z,4.93
2023-04-25T18:48:53.402Z,5.43
2023-04-25T18:51:23.806Z,4.75
2023-04-25T18:53:54.428Z,5.75
2023-04-25T18:56:26.212Z,4.50
2023-04-25T18:58:56.741Z,4.68
2023-04-25T19:01:27.679Z,5.85
2023-04-25T19:04:00.227Z,5.13
2023-04-25T19:06:32.090Z,5.35
2023-04-25T19:09:05.906Z,4.50
2023-04-25T19:11:36.608Z,4.45
2023-04-25T19:14:05.941Z,5.47
2023-04-25T19:16:39.229Z,3.97
2023-04-25T19:19:09.052Z,4.53
2023-04-25T19:21:38.180Z,6.70
2023-04-25T19:24:10.034Z,4.50
2023-04-25T19:26:39.543Z,5.53
2023-04-25T19:29:10.799Z,9.55
2023-04-25T19:31:40.994Z,5.90
2023-04-25T19:34:10.503Z,6.27
2023-04-25T19:36:45.477Z,4.90
2023-04-25T19:39:16.573Z,4.63
2023-04-25T19:41:45.675Z,8.02
2023-04-25T19:44:18.653Z,6.10
2023-04-25T19:46:50.150Z,5.27
2023-04-25T19:49:19.392Z,5.82
2023-04-25T19:51:49.304Z,5.47
2023-04-25T19:54:21.110Z,4.28
2023-04-25T19:56:52.294Z,6.40
2023-04-25T19:59:26.291Z,4.97
2023-04-25T20:01:55.413Z,6.43
2023-04-25T20:04:25.229Z,6.47
2023-04-25T20:06:55.187Z,6.13
2023-04-25T20:09:24.853Z,5.15
2023-04-25T20:11:53.652Z,5.37
2023-04-25T20:14:21.816Z,6.18
2023-04-25T20:16:50.542Z,7.65
2023-04-25T20:19:19.505Z,4.57
2023-04-25T20:21:47.754Z,4.18
2023-04-25T20:24:16.645Z,6.57
2023-04-25T20:26:46.799Z,6.07
2023-04-25T20:29:15.384Z,6.47
2023-04-25T20:31:44.108Z,5.45
2023-04-25T20:34:12.384Z,7.68
2023-04-25T20:36:40.511Z,5.87
2023-04-25T20:39:11.306Z,8.48
2023-04-25T20:41:40.413Z,5.90
2023-04-25T20:44:12.900Z,5.10
2023-04-25T20:46:41.104Z,5.07
2023-04-25T20:49:10.188Z,6.23
2023-04-25T20:51:39.145Z,8.20
2023-04-25T20:54:08.983Z,6.72
2023-04-25T20:56:40.239Z,7.13
2023-04-25T20:59:09.164Z,7.47
2023-04-25T21:01:38.890Z,5.37
2023-04-25T21:04:07.413Z,7.25
2023-04-25T21:06:35.677Z,6.95
2023-04-25T21:09:04.765Z,5.30
2023-04-25T21:11:33.381Z,5.40
2023-04-25T21:14:05.214Z,7.83
2023-04-25T21:16:35.456Z,9.07
2023-04-25T21:19:07.904Z,5.22
2023-04-25T21:21:36.350Z,5.10
2023-04-25T21:24:05.906Z,6.13
2023-04-25T21:26:34.531Z,6.47
2023-04-25T21:29:05.252Z,6.45
2023-04-25T21:31:36.717Z,5.07
2023-04-25T21:34:09.022Z,5.05
2023-04-25T21:36:37.012Z,6.10
2023-04-25T21:39:07.984Z,6.03
2023-04-25T21:41:37.533Z,8.40
2023-04-25T21:44:06.693Z,5.97
2023-04-25T21:46:36.898Z,6.57
2023-04-25T21:49:06.858Z,8.13
2023-04-25T21:51:35.010Z,5.83
2023-04-25T21:54:05.364Z,5.97
2023-04-25T21:56:33.566Z,6.38
2023-04-25T21:59:01.840Z,6.10
2023-04-25T22:01:29.971Z,6.28
2023-04-25T22:03:58.998Z,5.07
2023-04-25T22:06:28.633Z,8.57
2023-04-25T22:08:57.020Z,4.68
2023-04-25T22:11:26.530Z,5.85
2023-04-25T22:13:58.452Z,5.53
2023-04-25T22:16:26.813Z,4.83
2023-04-25T22:18:55.074Z,5.82
2023-04-25T22:21:24.553Z,4.75
2023-04-25T22:23:56.650Z,4.82
2023-04-25T22:26:26.178Z,5.75
2023-04-25T22:28:54.517Z,5.13
2023-04-25T22:31:22.752Z,6.40
2023-04-25T22:33:51.374Z,4.93
2023-04-25T22:36:19.681Z,7.63
2023-04-25T22:38:47.909Z,6.55
2023-04-25T22:41:18.443Z,6.43
2023-04-25T22:43:47.321Z,4.32
2023-04-25T22:46:17.741Z,5.22
2023-04-25T22:48:46.091Z,4.30
2023-04-25T22:51:15.084Z,4.50
2023-04-25T22:53:45.261Z,7.60
2023-04-25T22:56:17.417Z,5.70
2023-04-25T22:58:50.845Z,4.90
2023-04-25T23:01:19.544Z,5.40
2023-04-25T23:03:48.573Z,4.63
2023-04-25T23:06:18.950Z,7.00
2023-04-25T23:08:50.393Z,5.07
2023-04-25T23:11:20.425Z,8.48
2023-04-25T23:13:50.169Z,5.00
2023-04-25T23:16:18.524Z,6.75
2023-04-25T23:18:47.763Z,5.07
2023-04-25T23:21:16.125Z,6.30
2023-04-25T23:23:44.469Z,5.78
2023-04-25T23:26:13.211Z,4.30
2023-04-25T23:28:42.344Z,5.15
2023-04-25T23:31:14.916Z,5.30
2023-04-25T23:33:43.887Z,7.07
2023-04-25T23:36:20.244Z,7.88
2023-04-25T23:38:48.740Z,4.78
2023-04-25T23:41:17.039Z,6.60
2023-04-25T23:43:45.180Z,6.97
2023-04-25T23:46:14.917Z,5.60
2023-04-25T23:48:43.002Z,6.15
2023-04-25T23:51:11.506Z,5.30
2023-04-25T23:53:40.034Z,5.47
2023-04-25T23:56:08.305Z,6.53
2023-04-25T23:58:36.686Z,5.97
